createdAt,value
2023-04-03T00:00:57.994Z,7.78
2023-04-03T00:03:46.040Z,7.72
2023-04-03T00:06:15.576Z,7.72
2023-04-03T00:08:52.674Z,7.68
2023-04-03T00:11:21.101Z,7.68
2023-04-03T00:13:47.962Z,7.62
2023-04-03T00:16:20.882Z,7.58
2023-04-03T00:18:49.289Z,7.59
2023-04-03T00:21:16.048Z,7.50
2023-04-03T00:23:42.732Z,7.42
2023-04-03T00:26:10.304Z,7.43
2023-04-03T00:28:38.592Z,7.42
2023-04-03T00:31:06.136Z,7.46
2023-04-03T00:33:33.441Z,7.49
2023-04-03T00:36:10.816Z,7.53
2023-04-03T00:38:38.519Z,7.52
2023-04-03T00:41:05.979Z,7.53
2023-04-03T00:43:32.996Z,7.53
2023-04-03T00:46:00.188Z,7.46
2023-04-03T00:48:46.445Z,7.44
2023-04-03T00:51:15.837Z,7.44
2023-04-03T00:53:57.721Z,7.36
2023-04-03T00:56:25.649Z,7.36
2023-04-03T00:59:13.591Z,7.41
2023-04-03T01:01:41.014Z,7.35
2023-04-03T01:04:33.874Z,7.34
2023-04-03T01:07:04.530Z,7.34
2023-04-03T01:09:31.725Z,7.33
2023-04-03T01:12:24.379Z,7.40
2023-04-03T01:14:55.136Z,7.41
2023-04-03T01:17:36.242Z,7.46
2023-04-03T01:20:03.369Z,7.49
2023-04-03T01:22:35.916Z,7.47
2023-04-03T01:25:02.819Z,7.51
2023-04-03T01:27:30.340Z,7.57
2023-04-03T01:29:56.923Z,7.55
2023-04-03T01:32:25.572Z,7.56
2023-04-03T01:34:52.468Z,7.57
2023-04-03T01:37:19.405Z,7.54
2023-04-03T01:39:46.276Z,7.52
2023-04-03T01:42:12.939Z,7.58
2023-04-03T01:44:42.219Z,7.55
2023-04-03T01:47:09.317Z,7.54
2023-04-03T01:49:36.288Z,7.56
2023-04-03T01:52:02.931Z,7.60
2023-04-03T01:54:30.148Z,7.62
2023-04-03T01:56:57.200Z,7.62
2023-04-03T01:59:24.173Z,7.60
2023-04-03T02:01:51.105Z,7.60
2023-04-03T02:04:18.272Z,7.58
2023-04-03T02:06:45.075Z,7.57
2023-04-03T02:09:12.407Z,7.56
2023-04-03T02:11:39.509Z,7.57
2023-04-03T02:14:07.343Z,7.62
2023-04-03T02:16:41.376Z,7.63
2023-04-03T02:19:08.191Z,7.67
2023-04-03T02:21:35.223Z,7.75
2023-04-03T02:24:01.794Z,7.70
2023-04-03T02:26:28.960Z,7.71
2023-04-03T02:28:57.062Z,7.78
2023-04-03T02:31:24.462Z,7.80
2023-04-03T02:33:51.660Z,7.82
2023-04-03T02:36:19.035Z,7.90
2023-04-03T02:38:50.344Z,7.88
2023-04-03T02:41:17.145Z,7.84
2023-04-03T02:43:43.851Z,7.83
2023-04-03T02:46:10.789Z,7.75
2023-04-03T02:48:39.002Z,7.73
2023-04-03T02:51:05.757Z,7.73
2023-04-03T02:53:33.069Z,7.66
2023-04-03T02:56:07.203Z,7.63
2023-04-03T02:58:34.364Z,7.64
2023-04-03T03:01:05.148Z,7.62
2023-04-03T03:03:32.769Z,7.63
2023-04-03T03:06:10.988Z,7.70
2023-04-03T03:08:38.169Z,7.67
2023-04-03T03:11:05.842Z,7.67
2023-04-03T03:13:33.524Z,7.70
2023-04-03T03:16:00.998Z,7.70
2023-04-03T03:18:28.300Z,7.69
2023-04-03T03:20:59.480Z,7.67
2023-04-03T03:23:27.088Z,7.60
2023-04-03T03:25:57.855Z,7.56
2023-04-03T03:28:25.436Z,7.56
2023-04-03T03:30:52.666Z,7.51
2023-04-03T03:33:20.136Z,7.52
2023-04-03T03:35:46.889Z,7.53
2023-04-03T03:38:13.818Z,7.55
2023-04-03T03:40:40.843Z,7.56
2023-04-03T03:43:07.717Z,7.57
2023-04-03T03:45:36.563Z,7.54
2023-04-03T03:48:04.155Z,7.52
2023-04-03T03:50:32.731Z,7.55
2023-04-03T03:55:43.237Z,7.52
2023-04-03T03:58:11.917Z,7.56
2023-04-03T04:00:40.434Z,7.57
2023-04-03T04:03:09.772Z,7.59
2023-04-03T04:05:39.389Z,7.59
2023-04-03T04:08:15.029Z,7.56
2023-04-03T04:10:45.738Z,7.58
2023-04-03T04:13:15.549Z,7.57
2023-04-03T04:15:44.404Z,7.58
2023-04-03T04:18:13.174Z,7.62
2023-04-03T04:20:42.573Z,7.59
2023-04-03T04:23:13.842Z,7.57
2023-04-03T04:25:42.277Z,7.53
2023-04-03T04:28:11.230Z,7.51
2023-04-03T04:30:40.379Z,7.50
2023-04-03T04:33:09.480Z,7.47
2023-04-03T04:35:39.655Z,7.50
2023-04-03T04:38:09.831Z,7.55
2023-04-03T04:40:38.886Z,7.55
2023-04-03T04:43:07.212Z,7.61
2023-04-03T04:45:37.121Z,7.65
2023-04-03T04:48:05.807Z,7.65
2023-04-03T04:50:36.516Z,7.69
2023-04-03T04:53:05.522Z,7.70
2023-04-03T04:55:33.549Z,7.66
2023-04-03T04:58:02.853Z,7.68
2023-04-03T05:00:33.520Z,7.70
2023-04-03T05:03:02.672Z,7.65
2023-04-03T05:05:32.289Z,7.61
2023-04-03T05:08:00.697Z,7.59
2023-04-03T05:10:29.777Z,7.55
2023-04-03T05:12:58.882Z,7.55
2023-04-03T05:15:28.030Z,7.53
2023-04-03T05:17:57.774Z,7.56
2023-04-03T05:20:26.413Z,7.60
2023-04-03T05:22:54.403Z,7.64
2023-04-03T05:25:23.128Z,7.70
2023-04-03T05:27:51.547Z,7.72
2023-04-03T05:30:20.112Z,7.75
2023-04-03T05:32:49.297Z,7.74
2023-04-03T05:35:24.574Z,7.78
2023-04-03T05:37:54.080Z,7.79
2023-04-03T05:40:22.788Z,7.78
2023-04-03T05:42:54.569Z,7.79
2023-04-03T05:45:23.262Z,7.81
2023-04-03T05:47:51.918Z,7.83
2023-04-03T05:50:20.318Z,7.83
2023-04-03T05:52:52.210Z,7.87
2023-04-03T05:55:21.070Z,7.84
2023-04-03T05:57:49.514Z,7.83
2023-04-03T06:00:18.569Z,7.86
2023-04-03T06:02:51.551Z,7.91
2023-04-03T06:05:23.720Z,7.93
2023-04-03T06:07:51.938Z,7.95
2023-04-03T06:10:21.405Z,7.98
2023-04-03T06:12:51.408Z,8.01
2023-04-03T06:15:19.345Z,8.01
2023-04-03T06:17:50.048Z,8.03
2023-04-03T06:20:18.619Z,8.01
2023-04-03T06:22:47.133Z,7.98
2023-04-03T06:25:18.588Z,7.92
2023-04-03T06:27:46.659Z,7.87
2023-04-03T06:30:14.971Z,7.86
2023-04-03T06:32:44.200Z,7.87
2023-04-03T06:35:13.125Z,7.92
2023-04-03T06:37:41.673Z,7.95
2023-04-03T06:40:16.749Z,7.93
2023-04-03T06:42:45.680Z,7.96
2023-04-03T06:45:15.118Z,7.96
2023-04-03T06:47:46.529Z,7.95
2023-04-03T06:50:15.759Z,8.00
2023-04-03T06:52:45.945Z,8.06
2023-04-03T06:55:13.960Z,8.14
2023-04-03T06:57:42.348Z,8.14
2023-04-03T07:00:12.036Z,8.13
2023-04-03T07:02:41.162Z,8.13
2023-04-03T07:05:10.106Z,8.17
2023-04-03T07:07:38.920Z,8.18
2023-04-03T07:10:07.694Z,8.21
2023-04-03T07:12:36.922Z,8.25
2023-04-03T07:15:06.880Z,8.25
2023-04-03T07:17:35.337Z,8.26
2023-04-03T07:20:05.034Z,8.30
2023-04-03T07:22:37.223Z,8.33
2023-04-03T07:25:08.007Z,8.33
2023-04-03T07:27:36.373Z,8.31
2023-04-03T07:30:05.179Z,8.35
2023-04-03T07:32:36.371Z,8.37
2023-04-03T07:35:05.105Z,8.39
2023-04-03T07:37:33.706Z,8.39
2023-04-03T07:40:04.686Z,8.37
2023-04-03T07:42:33.324Z,8.36
2023-04-03T07:45:02.780Z,8.35
2023-04-03T07:47:32.755Z,8.33
2023-04-03T07:50:01.410Z,8.29
2023-04-03T07:52:31.976Z,8.33
2023-04-03T07:55:00.708Z,8.35
2023-04-03T07:57:29.241Z,8.39
2023-04-03T07:59:57.828Z,8.47
2023-04-03T08:02:26.338Z,8.56
2023-04-03T08:04:54.719Z,8.66
2023-04-03T08:07:23.129Z,8.73
2023-04-03T08:09:52.690Z,8.75
2023-04-03T08:12:20.889Z,8.77
2023-04-03T08:14:49.323Z,8.80
2023-04-03T08:17:19.447Z,8.81
2023-04-03T08:19:47.654Z,8.85
2023-04-03T08:22:17.152Z,8.88
2023-04-03T08:24:58.474Z,8.88
2023-04-03T08:27:28.314Z,8.95
2023-04-03T08:29:58.154Z,9.02
2023-04-03T08:32:26.818Z,9.08
2023-04-03T08:34:55.481Z,9.12
2023-04-03T08:37:27.558Z,9.14
2023-04-03T08:39:55.981Z,9.18
2023-04-03T08:42:41.595Z,9.23
2023-04-03T08:45:17.049Z,9.27
2023-04-03T08:47:53.407Z,9.29
2023-04-03T08:50:29.552Z,9.30
2023-04-03T08:52:58.797Z,9.31
2023-04-03T08:55:46.821Z,9.33
2023-04-03T08:58:19.599Z,9.31
2023-04-03T09:00:48.291Z,9.35
2023-04-03T09:03:18.565Z,9.37
2023-04-03T09:06:06.585Z,9.39
2023-04-03T09:09:05.930Z,9.43
2023-04-03T09:11:50.472Z,9.47
2023-04-03T09:14:56.470Z,9.52
2023-04-03T09:17:52.673Z,9.52
2023-04-03T09:20:46.224Z,9.51
2023-04-03T09:23:34.219Z,9.56
2023-04-03T09:26:06.246Z,9.61
2023-04-03T09:28:43.031Z,9.71
2023-04-03T09:31:23.675Z,9.82
2023-04-03T09:33:55.789Z,9.91
2023-04-03T09:36:42.334Z,9.95
2023-04-03T09:39:14.449Z,9.97
2023-04-03T09:41:43.926Z,10.02
2023-04-03T09:44:22.404Z,10.10
2023-04-03T09:46:50.540Z,10.13
2023-04-03T09:49:18.907Z,10.21
2023-04-03T09:51:47.008Z,10.32
2023-04-03T09:54:38.569Z,10.38
2023-04-03T09:57:09.516Z,10.43
2023-04-03T09:59:42.450Z,10.44
2023-04-03T10:02:13.667Z,10.49
2023-04-03T10:04:42.499Z,10.60
2023-04-03T10:07:30.665Z,10.67
2023-04-03T10:10:04.701Z,10.77
2023-04-03T10:12:33.253Z,10.91
2023-04-03T10:15:02.213Z,11.00
2023-04-03T10:17:52.963Z,11.02
2023-04-03T10:20:24.468Z,10.95
2023-04-03T10:23:18.861Z,10.96
2023-04-03T10:25:56.478Z,10.90
2023-04-03T10:28:46.766Z,10.75
2023-04-03T10:31:40.487Z,10.65
2023-04-03T10:34:58.611Z,10.51
2023-04-03T10:38:12.105Z,10.32
2023-04-03T10:41:02.142Z,10.14
2023-04-03T10:43:35.463Z,10.02
2023-04-03T10:46:10.960Z,9.99
2023-04-03T10:48:48.678Z,9.97
2023-04-03T10:51:38.497Z,9.87
2023-04-03T10:54:10.362Z,9.84
2023-04-03T10:57:11.904Z,9.85
2023-04-03T10:59:48.423Z,9.78
2023-04-03T11:02:42.126Z,9.76
2023-04-03T11:05:20.582Z,9.77
2023-04-03T11:07:51.944Z,9.80
2023-04-03T11:10:27.294Z,9.85
2023-04-03T11:13:03.101Z,9.92
2023-04-03T11:15:32.175Z,9.92
2023-04-03T11:18:09.794Z,9.90
2023-04-03T11:20:49.045Z,9.92
2023-04-03T11:23:23.283Z,9.96
2023-04-03T11:25:53.627Z,9.92
2023-04-03T11:28:21.748Z,9.87
2023-04-03T11:31:19.119Z,9.76
2023-04-03T11:34:04.734Z,9.65
2023-04-03T11:36:44.413Z,9.59
2023-04-03T11:39:24.154Z,9.47
2023-04-03T11:42:00.283Z,9.44
2023-04-03T11:44:39.907Z,9.39
2023-04-03T11:47:52.585Z,9.38
2023-04-03T11:50:43.545Z,9.38
2023-04-03T11:53:15.059Z,9.28
2023-04-03T11:55:44.295Z,9.20
2023-04-03T11:58:18.280Z,9.09
2023-04-03T12:00:52.515Z,9.02
2023-04-03T12:03:31.006Z,8.99
2023-04-03T12:06:15.073Z,8.91
2023-04-03T12:08:48.023Z,8.79
2023-04-03T12:11:33.786Z,8.71
2023-04-03T12:14:05.659Z,8.59
2023-04-03T12:16:35.115Z,8.55
2023-04-03T12:22:17.616Z,8.41
2023-04-03T12:24:47.989Z,8.37
2023-04-03T12:27:20.152Z,8.36
2023-04-03T12:30:07.927Z,8.28
2023-04-03T12:33:12.519Z,8.18
2023-04-03T12:35:56.829Z,8.16
2023-04-03T12:38:54.602Z,8.08
2023-04-03T12:41:47.623Z,8.06
2023-04-03T12:44:34.243Z,8.03
2023-04-03T12:47:03.782Z,8.07
2023-04-03T12:49:43.929Z,8.04
2023-04-03T12:52:29.284Z,8.01
2023-04-03T12:54:59.531Z,8.00
2023-04-03T12:57:33.753Z,7.94
2023-04-03T13:00:08.606Z,7.82
2023-04-03T13:02:45.699Z,7.74
2023-04-03T13:05:22.001Z,7.70
2023-04-03T13:08:14.152Z,7.64
2023-04-03T13:10:59.443Z,7.54
2023-04-03T13:13:32.895Z,7.45
2023-04-03T13:16:01.547Z,7.41
2023-04-03T13:18:38.909Z,7.31
2023-04-03T13:21:19.257Z,7.25
2023-04-03T13:23:51.601Z,7.23
2023-04-03T13:26:30.091Z,7.19
2023-04-03T13:29:04.818Z,7.12
2023-04-03T13:31:45.116Z,7.07
2023-04-03T13:34:21.433Z,7.04
2023-04-03T13:37:00.200Z,6.98
2023-04-03T13:39:34.085Z,6.91
2023-04-03T13:42:16.982Z,6.83
2023-04-03T13:44:52.182Z,6.77
2023-04-03T13:47:26.941Z,6.76
2023-04-03T13:50:16.404Z,6.77
2023-04-03T13:52:52.933Z,6.71
2023-04-03T13:55:35.690Z,6.75
2023-04-03T13:58:18.307Z,6.75
2023-04-03T14:00:54.529Z,6.74
2023-04-03T14:03:29.314Z,6.69
2023-04-03T14:06:03.104Z,6.59
2023-04-03T14:08:42.966Z,6.51
2023-04-03T14:11:28.102Z,6.48
2023-04-03T14:13:57.469Z,6.39
2023-04-03T14:16:29.201Z,6.31
2023-04-03T14:18:59.400Z,6.32
2023-04-03T14:21:28.676Z,6.28
2023-04-03T14:24:01.360Z,6.26
2023-04-03T14:26:32.053Z,6.26
2023-04-03T14:29:04.734Z,6.14
2023-04-03T14:31:37.169Z,6.02
2023-04-03T14:34:06.040Z,5.93
2023-04-03T14:36:35.214Z,5.83
2023-04-03T14:39:06.077Z,5.82
2023-04-03T14:41:35.014Z,5.87
2023-04-03T14:44:04.853Z,5.82
2023-04-03T14:46:54.490Z,5.82
2023-04-03T14:49:32.214Z,5.86
2023-04-03T14:52:08.868Z,5.83
2023-04-03T14:54:40.345Z,5.84
2023-04-03T14:57:10.180Z,5.88
2023-04-03T15:02:38.793Z,5.80
2023-04-03T15:05:09.736Z,5.81
2023-04-03T15:07:50.252Z,5.75
2023-04-03T15:10:20.014Z,5.70
2023-04-03T15:12:57.202Z,5.68
2023-04-03T15:15:29.754Z,5.63
2023-04-03T15:18:00.896Z,5.56
2023-04-03T15:20:31.661Z,5.59
2023-04-03T15:23:09.782Z,5.57
2023-04-03T15:25:47.740Z,5.59
2023-04-03T15:28:37.016Z,5.64
2023-04-03T15:31:10.514Z,5.56
2023-04-03T15:33:38.936Z,5.51
2023-04-03T15:36:16.750Z,5.47
2023-04-03T15:38:52.085Z,5.37
2023-04-03T15:41:22.680Z,5.27
2023-04-03T15:43:51.201Z,5.27
2023-04-03T15:46:35.653Z,5.17
2023-04-03T15:49:03.974Z,5.07
2023-04-03T15:51:45.100Z,5.09
2023-04-03T15:54:17.702Z,5.06
2023-04-03T15:56:47.703Z,5.00
2023-04-03T15:59:25.506Z,5.03
2023-04-03T16:01:55.540Z,5.06
2023-04-03T16:04:29.246Z,5.01
2023-04-03T16:06:59.590Z,4.97
2023-04-03T16:09:29.218Z,4.94
2023-04-03T16:13:54.688Z,4.79
2023-04-03T16:16:28.010Z,4.73
2023-04-03T16:18:58.733Z,4.74
2023-04-03T16:21:37.465Z,4.62
2023-04-03T16:24:11.983Z,4.52
2023-04-03T16:26:40.676Z,4.52
2023-04-03T16:29:11.941Z,4.48
2023-04-03T16:31:43.162Z,4.40
2023-04-03T16:34:12.486Z,4.41
2023-04-03T16:36:40.354Z,4.43
2023-04-03T16:39:10.614Z,4.37
2023-04-03T16:41:39.020Z,4.29
2023-04-03T16:44:07.806Z,4.28
2023-04-03T16:46:39.358Z,4.29
2023-04-03T16:49:07.811Z,4.21
2023-04-03T16:51:37.564Z,4.15
2023-04-03T16:54:04.279Z,4.21
2023-04-03T16:56:32.378Z,4.22
2023-04-03T16:58:59.293Z,4.20
2023-04-03T17:01:27.424Z,4.25
2023-04-03T17:04:08.497Z,4.20
2023-04-03T17:06:36.550Z,4.08
2023-04-03T17:09:03.593Z,4.06
2023-04-03T17:11:30.713Z,4.16
2023-04-03T17:13:57.970Z,4.15
2023-04-03T17:16:25.256Z,4.12
2023-04-03T17:18:56.735Z,4.15
2023-04-03T17:21:24.318Z,4.18
2023-04-03T17:23:54.309Z,4.15
2023-04-03T17:26:21.568Z,4.16
2023-04-03T17:28:48.472Z,4.26
2023-04-03T17:31:15.750Z,4.32
2023-04-03T17:33:43.156Z,4.31
2023-04-03T17:36:10.056Z,4.26
2023-04-03T17:38:38.051Z,4.29
2023-04-03T17:41:06.785Z,4.26
2023-04-03T17:43:34.139Z,4.19
2023-04-03T17:46:03.564Z,4.20
2023-04-03T17:48:31.909Z,4.22
2023-04-03T17:50:58.998Z,4.16
2023-04-03T17:53:27.154Z,4.09
2023-04-03T17:55:54.185Z,4.07
2023-04-03T17:58:21.103Z,4.02
2023-04-03T18:00:48.899Z,3.98
2023-04-03T18:03:16.923Z,4.07
2023-04-03T18:05:43.561Z,4.13
2023-04-03T18:08:10.307Z,4.06
2023-04-03T18:10:38.718Z,3.98
2023-04-03T18:13:07.231Z,4.06
2023-04-03T18:15:37.961Z,4.07
2023-04-03T18:18:04.993Z,3.98
2023-04-03T18:20:33.357Z,3.93
2023-04-03T18:23:00.774Z,3.95
2023-04-03T18:28:06.939Z,3.84
2023-04-03T18:30:34.130Z,3.89
2023-04-03T18:33:03.372Z,3.90
2023-04-03T18:35:30.937Z,3.84
2023-04-03T18:38:01.032Z,3.83
2023-04-03T18:40:28.072Z,3.85
2023-04-03T18:42:54.754Z,3.81
2023-04-03T18:45:21.871Z,3.79
2023-04-03T18:47:48.563Z,3.82
2023-04-03T18:50:15.962Z,3.83
2023-04-03T18:52:42.865Z,3.74
2023-04-03T18:55:13.356Z,3.69
2023-04-03T18:57:40.362Z,3.73
2023-04-03T19:00:13.618Z,3.74
2023-04-03T19:02:42.369Z,3.68
2023-04-03T19:05:10.819Z,3.63
2023-04-03T19:07:44.343Z,3.66
2023-04-03T19:10:19.487Z,3.65
2023-04-03T19:12:47.531Z,3.57
2023-04-03T19:15:15.402Z,3.51
2023-04-03T19:17:42.796Z,3.54
2023-04-03T19:20:10.255Z,3.62
2023-04-03T19:22:37.375Z,3.63
2023-04-03T19:25:05.334Z,3.58
2023-04-03T19:27:34.038Z,3.61
2023-04-03T19:30:01.166Z,3.69
2023-04-03T19:32:33.361Z,3.68
2023-04-03T19:35:00.889Z,3.62
2023-04-03T19:37:28.304Z,3.64
2023-04-03T19:39:55.245Z,3.72
2023-04-03T19:42:22.994Z,3.73
2023-04-03T19:44:49.937Z,3.64
2023-04-03T19:47:18.720Z,3.57
2023-04-03T19:49:45.466Z,3.60
2023-04-03T19:52:13.225Z,3.54
2023-04-03T19:54:40.037Z,3.43
2023-04-03T19:57:11.743Z,3.46
2023-04-03T19:59:40.903Z,3.46
2023-04-03T20:02:11.720Z,3.39
2023-04-03T20:04:39.312Z,3.43
2023-04-03T20:07:06.758Z,3.52
2023-04-03T20:09:34.257Z,3.50
2023-04-03T20:12:02.827Z,3.46
2023-04-03T20:14:30.548Z,3.48
2023-04-03T20:16:57.758Z,3.53
2023-04-03T20:19:25.619Z,3.52
2023-04-03T20:21:53.470Z,3.46
2023-04-03T20:24:21.674Z,3.43
2023-04-03T20:26:48.757Z,3.49
2023-04-03T20:29:16.230Z,3.50
2023-04-03T20:31:43.533Z,3.44
2023-04-03T20:34:11.318Z,3.49
2023-04-03T20:36:39.603Z,3.61
2023-04-03T20:39:07.029Z,3.60
2023-04-03T20:41:36.664Z,3.53
2023-04-03T20:44:05.091Z,3.48
2023-04-03T20:46:49.063Z,3.55
2023-04-03T20:49:18.875Z,3.54
2023-04-03T20:51:46.117Z,3.52
2023-04-03T20:54:14.122Z,3.58
2023-04-03T20:56:41.011Z,3.62
2023-04-03T20:59:10.455Z,3.57
2023-04-03T21:01:38.930Z,3.49
2023-04-03T21:04:11.697Z,3.52
2023-04-03T21:07:17.814Z,3.53
2023-04-03T21:10:24.718Z,3.45
2023-04-03T21:13:29.601Z,3.39
2023-04-03T21:15:59.371Z,3.46
2023-04-03T21:18:49.744Z,3.44
2023-04-03T21:21:22.778Z,3.31
2023-04-03T21:23:50.607Z,3.26
2023-04-03T21:26:17.452Z,3.37
2023-04-03T21:28:44.499Z,3.48
2023-04-03T21:31:12.747Z,3.49
2023-04-03T21:33:42.033Z,3.44
2023-04-03T21:36:09.594Z,3.43
2023-04-03T21:38:36.344Z,3.41
2023-04-03T21:41:03.373Z,3.30
2023-04-03T21:43:30.045Z,3.23
2023-04-03T21:45:57.974Z,3.27
2023-04-03T21:48:28.647Z,3.34
2023-04-03T21:51:01.779Z,3.33
2023-04-03T21:53:30.745Z,3.27
2023-04-03T21:55:57.464Z,3.27
2023-04-03T21:58:31.278Z,3.38
2023-04-03T22:01:13.261Z,3.37
2023-04-03T22:03:41.830Z,3.24
2023-04-03T22:06:10.826Z,3.14
2023-04-03T22:08:39.932Z,3.20
2023-04-03T22:11:12.189Z,3.23
2023-04-03T22:13:39.189Z,3.15
2023-04-03T22:16:08.413Z,3.07
2023-04-03T22:18:35.659Z,3.11
2023-04-03T22:21:02.831Z,3.16
2023-04-03T22:23:32.238Z,3.08
2023-04-03T22:26:06.968Z,3.02
2023-04-03T22:28:39.245Z,3.11
2023-04-03T22:31:12.776Z,3.17
2023-04-03T22:33:39.940Z,3.14
2023-04-03T22:36:09.039Z,3.15
2023-04-03T22:38:36.638Z,3.23
2023-04-03T22:41:05.634Z,3.22
2023-04-03T22:43:33.847Z,3.12
2023-04-03T22:46:09.609Z,3.17
2023-04-03T22:48:37.143Z,3.21
2023-04-03T22:51:07.917Z,3.12
2023-04-03T22:53:35.445Z,3.11
2023-04-03T22:56:11.973Z,3.20
2023-04-03T22:58:41.037Z,3.22
2023-04-03T23:01:17.304Z,3.20
2023-04-03T23:03:46.327Z,3.27
2023-04-03T23:06:13.543Z,3.29
2023-04-03T23:08:47.762Z,3.22
2023-04-03T23:11:18.162Z,3.13
2023-04-03T23:13:47.064Z,3.20
2023-04-03T23:16:17.340Z,3.19
2023-04-03T23:18:51.445Z,3.13
2023-04-03T23:21:19.336Z,3.14
2023-04-03T23:23:46.898Z,3.19
2023-04-03T23:26:13.873Z,3.16
2023-04-03T23:28:50.606Z,3.13
2023-04-03T23:31:18.991Z,3.17
2023-04-03T23:33:50.873Z,3.17
2023-04-03T23:36:18.056Z,3.06
2023-04-03T23:39:03.138Z,2.97
2023-04-03T23:41:35.835Z,2.99
2023-04-03T23:44:04.971Z,2.98
2023-04-03T23:46:36.474Z,2.87
2023-04-03T23:49:08.958Z,2.80
2023-04-03T23:51:40.124Z,2.85
2023-04-03T23:54:07.838Z,2.84
2023-04-03T23:56:41.760Z,2.83
2023-04-03T23:59:13.650Z,2.78
